Time;durP1;ratioP1;P1;durP2;ratioP2;P2;SDS_P1;SDS_P2;PMS_P1;PMS_P2;Temp;Humidity;BMP_temperature;BMP_pressure;BME280_temperature;BME280_humidity;BME280_pressure;Samples;Min_cycle;Max_cycle;Signal;HPM_P1;HPM_P2
2023/03/10 00:00:42;;;;;;;;;;;8.40;99.90;;;;;;5104152;28;19987;-70
2023/03/10 00:03:09;;;;;;;;;;;8.40;99.90;;;;;;5103901;28;19983;-71
2023/03/10 00:05:36;;;;;;;;;;;8.30;99.90;;;;;;5103802;28;19987;-70
2023/03/10 00:08:02;;;;;;;;;;;8.40;99.90;;;;;;5104061;28;19920;-70
2023/03/10 00:10:29;;;;;;;;;;;8.30;99.90;;;;;;5124435;28;19923;-72
2023/03/10 00:12:57;;;;;;;;;;;8.30;99.90;;;;;;5123417;28;19966;-70
2023/03/10 00:15:24;;;;;;;;;;;8.30;99.90;;;;;;5123836;28;19935;-73
2023/03/10 00:17:54;;;;;;;;;;;8.30;99.90;;;;;;5123538;28;19951;-72
2023/03/10 00:20:21;;;;;;;;;;;8.30;99.90;;;;;;5104719;28;19920;-72
2023/03/10 00:22:48;;;;;;;;;;;8.30;99.90;;;;;;5103412;28;19920;-72
2023/03/10 00:25:16;;;;;;;;;;;8.30;99.90;;;;;;5103169;28;20393;-70
2023/03/10 00:27:43;;;;;;;;;;;8.30;99.90;;;;;;5103495;28;19920;-71
2023/03/10 00:30:11;;;;;;;;;;;8.30;99.90;;;;;;5103774;28;19970;-72
2023/03/10 00:32:38;;;;;;;;;;;8.30;99.90;;;;;;5105367;28;19987;-72
2023/03/10 00:35:05;;;;;;;;;;;8.30;99.90;;;;;;5121090;28;19927;-72
2023/03/10 00:37:32;;;;;;;;;;;8.40;99.90;;;;;;5105912;28;19923;-72
2023/03/10 00:39:58;;;;;;;;;;;8.40;99.90;;;;;;5103382;28;20227;-71
2023/03/10 00:42:25;;;;;;;;;;;8.40;99.90;;;;;;5103524;28;19951;-70
2023/03/10 00:44:52;;;;;;;;;;;8.30;99.90;;;;;;5103493;28;19920;-71
2023/03/10 00:47:20;;;;;;;;;;;8.30;99.90;;;;;;5102583;28;19952;-72
2023/03/10 00:49:47;;;;;;;;;;;8.40;99.90;;;;;;5102171;28;19920;-71
2023/03/10 00:52:13;;;;;;;;;;;8.40;99.90;;;;;;5102493;28;19921;-70
2023/03/10 00:54:41;;;;;;;;;;;8.40;99.90;;;;;;5103391;28;19955;-70
2023/03/10 00:57:07;;;;;;;;;;;8.40;99.90;;;;;;5101867;28;19920;-70
2023/03/10 00:59:34;;;;;;;;;;;8.50;99.90;;;;;;5103347;28;19920;-71
2023/03/10 01:02:00;;;;;;;;;;;8.50;99.90;;;;;;5110389;28;19935;-69
2023/03/10 01:04:28;;;;;;;;;;;8.50;99.90;;;;;;5123230;28;20157;-70
2023/03/10 01:06:55;;;;;;;;;;;8.60;99.90;;;;;;5122812;28;19926;-70
2023/03/10 01:09:22;;;;;;;;;;;8.60;99.90;;;;;;5123776;28;19987;-71
2023/03/10 01:11:49;;;;;;;;;;;8.60;99.90;;;;;;5123032;28;19983;-71
2023/03/10 01:14:16;;;;;;;;;;;8.60;99.90;;;;;;5123409;28;20265;-71
2023/03/10 01:16:42;;;;;;;;;;;8.60;99.90;;;;;;5122719;28;19983;-71
2023/03/10 01:19:09;;;;;;;;;;;8.70;99.90;;;;;;5123421;28;19926;-71
2023/03/10 01:21:38;;;;;;;;;;;8.70;99.90;;;;;;5110747;28;20227;-69
2023/03/10 01:24:06;;;;;;;;;;;8.70;99.90;;;;;;5110614;28;20111;-70
2023/03/10 01:26:32;;;;;;;;;;;8.80;99.90;;;;;;5123697;28;19996;-70
2023/03/10 01:28:59;;;;;;;;;;;8.80;99.90;;;;;;5127186;28;19983;-72
2023/03/10 01:31:25;;;;;;;;;;;8.80;99.90;;;;;;5114431;28;19987;-71
2023/03/10 01:33:52;;;;;;;;;;;8.70;99.90;;;;;;5106954;28;20164;-69
2023/03/10 01:36:20;;;;;;;;;;;8.80;99.90;;;;;;5106547;28;19926;-71
2023/03/10 01:38:48;;;;;;;;;;;8.80;99.90;;;;;;5106593;28;19920;-72
2023/03/10 01:41:15;;;;;;;;;;;8.80;99.90;;;;;;5106898;28;19955;-70
2023/03/10 01:43:42;;;;;;;;;;;8.80;99.90;;;;;;5106775;28;19920;-71
2023/03/10 01:46:30;;;;;;;;;;;8.80;99.90;;;;;;5103720;28;19942;-70
2023/03/10 01:48:59;;;;;;;;;;;8.80;99.90;;;;;;5106749;28;19927;-70
2023/03/10 01:51:25;;;;;;;;;;;8.80;99.90;;;;;;5106244;28;19926;-72
2023/03/10 01:53:53;;;;;;;;;;;8.70;99.90;;;;;;5106661;28;20038;-71
2023/03/10 01:56:20;;;;;;;;;;;8.70;99.90;;;;;;5112242;28;19919;-70
2023/03/10 01:58:47;;;;;;;;;;;8.60;99.90;;;;;;5126881;28;19988;-71
2023/03/10 02:01:14;;;;;;;;;;;8.50;99.90;;;;;;5126666;28;19920;-72
2023/03/10 02:03:44;;;;;;;;;;;8.40;99.90;;;;;;5126424;28;20353;-72
2023/03/10 02:06:13;;;;;;;;;;;8.40;99.90;;;;;;5126017;28;19920;-70
2023/03/10 02:08:42;;;;;;;;;;;8.40;99.90;;;;;;5126316;28;19920;-72
2023/03/10 02:11:10;;;;;;;;;;;8.40;99.90;;;;;;5126611;28;19920;-70
2023/03/10 02:13:37;;;;;;;;;;;8.40;99.90;;;;;;5125688;28;19920;-71
2023/03/10 02:16:04;;;;;;;;;;;8.30;99.90;;;;;;5126142;28;19983;-70
2023/03/10 02:18:31;;;;;;;;;;;8.30;99.90;;;;;;5126368;28;19919;-70
2023/03/10 02:21:03;;;;;;;;;;;8.30;99.90;;;;;;5126430;28;19976;-71
2023/03/10 02:26:00;;;;;;;;;;;8.20;99.90;;;;;;5075113;28;20150;-70
2023/03/10 02:28:28;;;;;;;;;;;8.20;99.90;;;;;;5085114;28;19928;-70
2023/03/10 02:30:55;;;;;;;;;;;8.20;99.90;;;;;;5084619;28;19921;-70
2023/03/10 02:33:25;;;;;;;;;;;8.10;99.90;;;;;;5077069;28;19927;-70
2023/03/10 02:35:52;;;;;;;;;;;8.10;99.90;;;;;;5064961;28;20291;-70
2023/03/10 02:38:18;;;;;;;;;;;8.10;99.90;;;;;;5064721;28;19995;-70
2023/03/10 02:40:46;;;;;;;;;;;8.10;99.90;;;;;;5065032;28;20208;-70
2023/03/10 02:43:15;;;;;;;;;;;8.10;99.90;;;;;;5065053;28;19921;-70
2023/03/10 02:45:44;;;;;;;;;;;8.00;99.90;;;;;;5065097;28;20007;-70
2023/03/10 02:48:12;;;;;;;;;;;8.00;99.90;;;;;;5065097;28;19992;-70
2023/03/10 02:50:40;;;;;;;;;;;8.00;99.90;;;;;;5065092;28;19927;-69
2023/03/10 02:53:10;;;;;;;;;;;8.00;99.90;;;;;;5065106;28;19967;-70
2023/03/10 02:55:37;;;;;;;;;;;7.90;99.90;;;;;;5064602;28;20114;-69
2023/03/10 02:58:03;;;;;;;;;;;7.90;99.90;;;;;;5064587;28;19996;-70
2023/03/10 03:00:30;;;;;;;;;;;7.80;99.90;;;;;;5064860;28;19992;-70
2023/03/10 03:02:58;;;;;;;;;;;7.70;99.90;;;;;;5064889;28;19952;-72
2023/03/10 03:05:24;;;;;;;;;;;7.70;99.90;;;;;;5064412;28;19921;-69
2023/03/10 03:07:51;;;;;;;;;;;7.60;99.90;;;;;;5064628;28;19956;-69
2023/03/10 03:10:18;;;;;;;;;;;7.70;99.90;;;;;;5064496;28;19952;-70
2023/03/10 03:12:45;;;;;;;;;;;7.70;99.90;;;;;;5064114;28;20009;-69
2023/03/10 03:15:11;;;;;;;;;;;7.60;99.90;;;;;;5064227;28;19927;-70
2023/03/10 03:17:38;;;;;;;;;;;7.70;99.90;;;;;;5063979;28;19960;-70
2023/03/10 03:20:12;;;;;;;;;;;7.70;99.90;;;;;;5064708;28;19952;-70
2023/03/10 03:22:39;;;;;;;;;;;7.60;99.90;;;;;;5059471;28;19920;-68
2023/03/10 03:25:06;;;;;;;;;;;7.70;99.90;;;;;;5064192;28;20097;-70
2023/03/10 03:27:33;;;;;;;;;;;7.60;99.90;;;;;;5063845;28;19935;-70
2023/03/10 03:29:59;;;;;;;;;;;7.60;99.90;;;;;;5064507;28;20147;-70
2023/03/10 03:32:26;;;;;;;;;;;7.60;99.90;;;;;;5064287;28;19964;-70
2023/03/10 03:34:53;;;;;;;;;;;7.60;99.90;;;;;;5064092;28;19987;-70
2023/03/10 03:37:21;;;;;;;;;;;7.60;99.90;;;;;;5063810;28;19927;-70
2023/03/10 03:39:47;;;;;;;;;;;7.60;99.90;;;;;;5064159;28;19920;-70
2023/03/10 03:42:14;;;;;;;;;;;7.50;99.90;;;;;;5063888;28;19983;-70
2023/03/10 03:44:40;;;;;;;;;;;7.40;99.90;;;;;;5064104;28;19965;-70
2023/03/10 03:47:09;;;;;;;;;;;7.40;99.90;;;;;;5063774;28;20145;-70
2023/03/10 03:49:36;;;;;;;;;;;7.40;99.90;;;;;;5063137;28;19956;-70
2023/03/10 03:52:02;;;;;;;;;;;7.40;99.90;;;;;;5063627;28;19920;-69
2023/03/10 03:54:30;;;;;;;;;;;7.40;99.90;;;;;;5063817;28;19980;-70
2023/03/10 03:56:57;;;;;;;;;;;7.40;99.90;;;;;;5063484;28;20204;-70
2023/03/10 03:59:23;;;;;;;;;;;7.40;99.90;;;;;;5064103;28;20121;-71
2023/03/10 04:01:50;;;;;;;;;;;7.40;99.90;;;;;;5063043;28;19992;-70
2023/03/10 04:04:17;;;;;;;;;;;7.40;99.90;;;;;;5063746;28;19948;-69
2023/03/10 04:06:43;;;;;;;;;;;7.40;99.90;;;;;;5063459;28;19952;-69
2023/03/10 04:09:10;;;;;;;;;;;7.40;99.90;;;;;;5063516;28;20230;-70
2023/03/10 04:11:38;;;;;;;;;;;7.40;99.90;;;;;;5063156;28;19927;-69
2023/03/10 04:14:05;;;;;;;;;;;7.40;99.90;;;;;;5063636;28;20089;-70
2023/03/10 04:16:31;;;;;;;;;;;7.40;99.90;;;;;;5062971;28;19928;-69
2023/03/10 04:18:58;;;;;;;;;;;7.40;99.90;;;;;;5063635;28;19921;-70
2023/03/10 04:21:24;;;;;;;;;;;7.50;99.90;;;;;;5063444;28;19988;-70
2023/03/10 04:23:51;;;;;;;;;;;7.60;99.90;;;;;;5063166;28;19983;-70
2023/03/10 04:26:19;;;;;;;;;;;7.60;99.90;;;;;;5062668;28;19920;-70
2023/03/10 04:28:47;;;;;;;;;;;7.70;99.90;;;;;;5063371;28;19959;-70
2023/03/10 04:31:14;;;;;;;;;;;7.70;99.90;;;;;;5063186;28;20113;-70
2023/03/10 04:33:41;;;;;;;;;;;7.70;99.90;;;;;;5063391;28;19927;-69
2023/03/10 04:36:08;;;;;;;;;;;7.80;99.90;;;;;;5062833;28;19984;-70
2023/03/10 04:38:34;;;;;;;;;;;7.90;99.90;;;;;;5063320;28;19921;-70
2023/03/10 04:41:01;;;;;;;;;;;7.90;99.90;;;;;;5063120;28;20292;-70
2023/03/10 04:43:28;;;;;;;;;;;7.90;99.90;;;;;;5063179;28;19928;-69
2023/03/10 04:45:56;;;;;;;;;;;8.00;99.90;;;;;;5063278;28;19920;-70
2023/03/10 04:48:23;;;;;;;;;;;8.00;99.90;;;;;;5063232;28;19927;-70
2023/03/10 04:50:54;;;;;;;;;;;8.10;99.90;;;;;;5063137;28;20084;-69
2023/03/10 04:53:21;;;;;;;;;;;8.10;99.90;;;;;;5063105;28;19929;-70
2023/03/10 04:55:47;;;;;;;;;;;8.20;99.90;;;;;;5063271;28;19987;-70
2023/03/10 04:58:14;;;;;;;;;;;8.20;99.90;;;;;;5062778;28;20250;-70
2023/03/10 05:00:41;;;;;;;;;;;8.30;99.90;;;;;;5064821;28;19992;-70
2023/03/10 05:03:09;;;;;;;;;;;8.30;99.90;;;;;;5067210;28;20156;-70
2023/03/10 05:05:35;;;;;;;;;;;8.30;99.90;;;;;;5066547;28;19970;-69
2023/03/10 05:08:02;;;;;;;;;;;8.40;99.90;;;;;;5066587;28;19921;-69
2023/03/10 05:10:29;;;;;;;;;;;8.40;99.90;;;;;;5066691;28;19921;-70
2023/03/10 05:12:55;;;;;;;;;;;8.40;99.90;;;;;;5066461;28;20274;-70
2023/03/10 05:15:22;;;;;;;;;;;8.50;99.90;;;;;;5066769;28;19921;-69
2023/03/10 05:17:49;;;;;;;;;;;8.50;99.90;;;;;;5066749;28;19921;-69
2023/03/10 05:20:17;;;;;;;;;;;8.50;99.90;;;;;;5066676;28;19921;-69
2023/03/10 05:22:44;;;;;;;;;;;8.50;99.90;;;;;;5066634;28;19921;-69
2023/03/10 05:25:11;;;;;;;;;;;8.60;99.90;;;;;;5066285;28;19921;-70
2023/03/10 05:27:38;;;;;;;;;;;8.50;99.90;;;;;;5066422;28;19921;-70
2023/03/10 05:30:06;;;;;;;;;;;8.50;99.90;;;;;;5066814;28;19971;-69
2023/03/10 05:32:33;;;;;;;;;;;8.50;99.90;;;;;;5066593;28;19952;-69
2023/03/10 05:35:00;;;;;;;;;;;8.50;99.90;;;;;;5066572;28;19992;-69
2023/03/10 05:37:28;;;;;;;;;;;8.50;99.90;;;;;;5066378;28;19996;-69
2023/03/10 05:39:55;;;;;;;;;;;8.50;99.90;;;;;;5066395;28;19988;-70
2023/03/10 05:42:22;;;;;;;;;;;8.50;99.90;;;;;;5066280;28;19988;-69
2023/03/10 05:44:49;;;;;;;;;;;8.50;99.90;;;;;;5066167;28;19927;-70
2023/03/10 05:47:17;;;;;;;;;;;8.40;99.90;;;;;;5065851;28;19927;-69
2023/03/10 05:49:44;;;;;;;;;;;8.40;99.90;;;;;;5066165;28;19921;-70
2023/03/10 05:52:11;;;;;;;;;;;8.40;99.90;;;;;;5066382;28;19921;-70
2023/03/10 05:54:39;;;;;;;;;;;8.40;99.90;;;;;;5065983;28;19992;-69
2023/03/10 05:57:05;;;;;;;;;;;8.30;99.90;;;;;;5065676;28;19920;-69
2023/03/10 05:59:32;;;;;;;;;;;8.30;99.90;;;;;;5066130;28;19921;-69
2023/03/10 06:01:59;;;;;;;;;;;8.30;99.90;;;;;;5066509;28;19959;-70
2023/03/10 06:04:27;;;;;;;;;;;8.30;99.90;;;;;;5066349;28;19988;-70
2023/03/10 06:06:54;;;;;;;;;;;8.30;99.90;;;;;;5066241;28;19928;-70
2023/03/10 06:09:21;;;;;;;;;;;8.30;99.90;;;;;;5065984;28;19921;-70
2023/03/10 06:11:49;;;;;;;;;;;8.30;99.90;;;;;;5065762;28;20208;-69
2023/03/10 06:14:16;;;;;;;;;;;8.30;99.90;;;;;;5065508;28;19921;-70
2023/03/10 06:16:43;;;;;;;;;;;8.40;99.90;;;;;;5065399;28;19948;-70
2023/03/10 06:19:10;;;;;;;;;;;8.30;99.90;;;;;;5064763;28;19944;-70
2023/03/10 06:21:37;;;;;;;;;;;8.30;99.90;;;;;;5066253;28;19921;-71
2023/03/10 06:24:04;;;;;;;;;;;8.30;99.90;;;;;;5065188;28;19956;-74
2023/03/10 06:26:30;;;;;;;;;;;8.40;99.90;;;;;;5065258;28;20263;-72
2023/03/10 06:28:58;;;;;;;;;;;8.30;99.90;;;;;;5065400;28;19920;-71
2023/03/10 06:31:25;;;;;;;;;;;8.40;99.90;;;;;;5065380;28;19921;-71
2023/03/10 06:33:52;;;;;;;;;;;8.40;99.90;;;;;;5065393;28;19975;-71
2023/03/10 06:36:19;;;;;;;;;;;8.40;99.90;;;;;;5065282;28;19921;-71
2023/03/10 06:38:55;;;;;;;;;;;8.30;99.90;;;;;;5066267;28;19921;-71
2023/03/10 06:41:22;;;;;;;;;;;8.40;99.90;;;;;;5065306;28;20223;-72
2023/03/10 06:43:56;;;;;;;;;;;8.30;99.90;;;;;;5064978;28;19959;-71
2023/03/10 06:46:27;;;;;;;;;;;8.30;99.90;;;;;;5064402;28;19976;-71
2023/03/10 06:48:54;;;;;;;;;;;8.30;99.90;;;;;;5065187;28;19992;-71
2023/03/10 06:51:21;;;;;;;;;;;8.30;99.90;;;;;;5065387;28;20164;-71
2023/03/10 06:53:49;;;;;;;;;;;8.30;99.90;;;;;;5065808;28;20200;-71
2023/03/10 06:56:16;;;;;;;;;;;8.30;99.90;;;;;;5065411;28;19983;-70
2023/03/10 06:58:43;;;;;;;;;;;8.30;99.90;;;;;;5065927;28;19921;-71
2023/03/10 07:01:19;;;;;;;;;;;8.30;99.90;;;;;;5065429;28;19929;-71
2023/03/10 07:03:47;;;;;;;;;;;8.30;99.90;;;;;;5064791;28;19925;-71
2023/03/10 07:06:14;;;;;;;;;;;8.30;99.90;;;;;;5062023;28;20167;-71
2023/03/10 07:08:41;;;;;;;;;;;8.20;99.90;;;;;;5065122;28;19920;-71
2023/03/10 07:11:07;;;;;;;;;;;8.20;99.90;;;;;;5065155;28;19921;-71
2023/03/10 07:13:34;;;;;;;;;;;8.30;99.90;;;;;;5064774;28;19921;-71
2023/03/10 07:16:01;;;;;;;;;;;8.30;99.90;;;;;;5064684;28;19983;-70
2023/03/10 07:18:28;;;;;;;;;;;8.30;99.90;;;;;;5064276;28;20204;-70
2023/03/10 07:20:57;;;;;;;;;;;8.30;99.90;;;;;;5064789;28;19928;-71
2023/03/10 07:23:23;;;;;;;;;;;8.30;99.90;;;;;;5063830;28;19921;-71
2023/03/10 07:25:51;;;;;;;;;;;8.40;99.90;;;;;;5064422;28;19927;-71
2023/03/10 07:28:18;;;;;;;;;;;8.40;99.90;;;;;;5065240;28;19928;-70
2023/03/10 07:30:45;;;;;;;;;;;8.40;99.90;;;;;;5065461;28;19927;-71
2023/03/10 07:33:12;;;;;;;;;;;8.60;99.90;;;;;;5065007;28;19925;-71
2023/03/10 07:35:39;;;;;;;;;;;8.50;99.90;;;;;;5064428;28;19984;-70
2023/03/10 07:38:07;;;;;;;;;;;8.50;99.90;;;;;;5065061;28;19988;-71
2023/03/10 07:40:33;;;;;;;;;;;8.50;99.90;;;;;;5064440;28;19948;-70
2023/03/10 07:43:00;;;;;;;;;;;8.60;99.90;;;;;;5064281;28;20175;-70
2023/03/10 07:45:29;;;;;;;;;;;8.60;99.90;;;;;;5064597;28;19924;-71
2023/03/10 07:47:56;;;;;;;;;;;8.60;99.90;;;;;;5063815;28;20258;-70
2023/03/10 07:50:23;;;;;;;;;;;8.60;99.90;;;;;;5064030;28;19925;-70
2023/03/10 07:52:49;;;;;;;;;;;8.60;99.90;;;;;;5063875;28;19928;-70
2023/03/10 07:55:18;;;;;;;;;;;8.70;99.90;;;;;;5064420;28;19920;-71
2023/03/10 07:58:16;;;;;;;;;;;8.70;99.90;;;;;;5064568;28;20188;-70
2023/03/10 08:00:43;;;;;;;;;;;8.70;99.90;;;;;;5064334;28;20295;-73
2023/03/10 08:03:09;;;;;;;;;;;8.60;99.90;;;;;;5063962;28;19921;-71
2023/03/10 08:05:39;;;;;;;;;;;8.60;99.90;;;;;;5064754;28;19929;-71
2023/03/10 08:08:06;;;;;;;;;;;8.70;99.90;;;;;;5064596;28;19948;-71
2023/03/10 08:10:34;;;;;;;;;;;8.70;99.90;;;;;;5065046;28;20399;-71
2023/03/10 08:13:01;;;;;;;;;;;8.80;99.90;;;;;;5064290;28;19928;-70
2023/03/10 08:15:28;;;;;;;;;;;8.80;99.90;;;;;;5063962;28;19921;-71
2023/03/10 08:17:55;;;;;;;;;;;8.80;99.90;;;;;;5064054;28;19948;-71
2023/03/10 08:20:22;;;;;;;;;;;8.90;99.90;;;;;;5063613;28;19920;-71
2023/03/10 08:22:48;;;;;;;;;;;9.00;99.90;;;;;;5062362;28;19928;-71
2023/03/10 08:25:16;;;;;;;;;;;9.10;99.90;;;;;;5063132;28;19921;-70
2023/03/10 08:27:44;;;;;;;;;;;9.20;99.90;;;;;;5062996;28;19921;-71
2023/03/10 08:30:11;;;;;;;;;;;9.30;99.90;;;;;;5063248;28;20215;-71
2023/03/10 08:32:38;;;;;;;;;;;9.40;99.90;;;;;;5063147;28;19927;-71
2023/03/10 08:35:05;;;;;;;;;;;9.50;99.90;;;;;;5063612;28;19988;-71
2023/03/10 08:37:31;;;;;;;;;;;9.50;99.90;;;;;;5063461;28;20015;-71
2023/03/10 08:40:17;;;;;;;;;;;9.50;99.90;;;;;;5063556;28;19921;-71
2023/03/10 08:42:45;;;;;;;;;;;9.60;99.90;;;;;;5064054;28;19921;-71
2023/03/10 08:45:12;;;;;;;;;;;9.60;99.90;;;;;;5064088;28;19927;-70
2023/03/10 08:47:39;;;;;;;;;;;9.60;99.90;;;;;;5063194;28;19921;-71
2023/03/10 08:50:07;;;;;;;;;;;9.70;99.90;;;;;;5064131;28;19920;-70
2023/03/10 08:52:33;;;;;;;;;;;9.70;99.90;;;;;;5063803;28;19959;-71
2023/03/10 08:55:00;;;;;;;;;;;9.80;99.90;;;;;;5060576;28;19929;-71
2023/03/10 08:57:27;;;;;;;;;;;9.80;99.90;;;;;;5063524;28;19927;-71
2023/03/10 08:59:55;;;;;;;;;;;9.90;99.90;;;;;;5063520;28;19996;-71
2023/03/10 09:02:21;;;;;;;;;;;10.00;99.90;;;;;;5063808;28;19988;-70
2023/03/10 09:04:49;;;;;;;;;;;10.10;99.90;;;;;;5063249;28;19966;-71
2023/03/10 09:07:16;;;;;;;;;;;10.10;99.90;;;;;;5062639;28;19927;-71
2023/03/10 09:09:42;;;;;;;;;;;10.20;99.90;;;;;;5063278;28;19927;-71
2023/03/10 09:12:09;;;;;;;;;;;10.20;99.90;;;;;;5063447;28;19987;-71
2023/03/10 09:14:36;;;;;;;;;;;10.30;99.90;;;;;;5063036;28;19955;-72
2023/03/10 09:17:04;;;;;;;;;;;10.30;99.90;;;;;;5062856;28;19925;-71
2023/03/10 09:19:31;;;;;;;;;;;10.40;99.90;;;;;;5063367;28;19920;-71
2023/03/10 09:21:58;;;;;;;;;;;10.50;99.90;;;;;;5063379;28;19983;-71
2023/03/10 09:24:25;;;;;;;;;;;10.60;99.90;;;;;;5062968;28;19925;-71
2023/03/10 09:26:51;;;;;;;;;;;10.60;99.90;;;;;;5062815;28;19922;-70
2023/03/10 09:29:18;;;;;;;;;;;10.60;99.90;;;;;;5063263;28;19955;-70
2023/03/10 09:31:51;;;;;;;;;;;10.60;99.90;;;;;;5060422;28;19928;-71
2023/03/10 09:34:19;;;;;;;;;;;10.60;99.90;;;;;;5062958;28;19927;-69
2023/03/10 09:36:45;;;;;;;;;;;10.60;99.90;;;;;;5062477;28;19928;-70
2023/03/10 09:39:13;;;;;;;;;;;10.50;99.90;;;;;;5061758;28;20157;-71
2023/03/10 09:41:48;;;;;;;;;;;10.40;99.90;;;;;;5063288;28;19927;-70
2023/03/10 09:44:25;;;;;;;;;;;10.30;99.90;;;;;;5043264;28;19953;-70
2023/03/10 09:47:00;;;;;;;;;;;10.10;99.90;;;;;;5061860;22;19946;-70
2023/03/10 09:49:33;;;;;;;;;;;10.00;99.90;;;;;;5075667;28;19920;-71
2023/03/10 09:52:02;;;;;;;;;;;10.00;99.90;;;;;;5086628;28;19958;-70
2023/03/10 09:54:36;;;;;;;;;;;9.80;99.90;;;;;;5086537;28;19987;-70
2023/03/10 09:57:10;;;;;;;;;;;9.50;99.90;;;;;;5085120;28;20211;-70
2023/03/10 09:59:38;;;;;;;;;;;9.30;99.90;;;;;;5086177;28;20283;-70
2023/03/10 10:02:14;;;;;;;;;;;9.10;99.90;;;;;;5086226;28;19929;-71
2023/03/10 10:04:42;;;;;;;;;;;8.90;99.90;;;;;;5085585;28;20150;-70
2023/03/10 10:07:13;;;;;;;;;;;8.80;99.90;;;;;;5084029;28;19920;-70
2023/03/10 10:09:42;;;;;;;;;;;8.70;99.90;;;;;;5085832;28;19920;-70
2023/03/10 10:12:11;;;;;;;;;;;8.50;99.90;;;;;;5073245;28;19956;-70
2023/03/10 10:14:38;;;;;;;;;;;8.40;99.90;;;;;;5083851;28;19921;-70
2023/03/10 10:17:08;;;;;;;;;;;8.40;99.90;;;;;;5084622;28;19991;-70
2023/03/10 10:19:36;;;;;;;;;;;8.30;99.90;;;;;;5065086;28;19920;-71
2023/03/10 10:22:07;;;;;;;;;;;8.40;99.90;;;;;;5065771;28;19920;-70
2023/03/10 10:24:34;;;;;;;;;;;8.40;99.90;;;;;;5065032;28;20230;-70
2023/03/10 10:27:00;;;;;;;;;;;8.30;99.90;;;;;;5066469;28;20060;-70
2023/03/10 10:29:32;;;;;;;;;;;8.30;99.90;;;;;;5081825;28;19992;-70
2023/03/10 10:32:03;;;;;;;;;;;8.30;99.90;;;;;;5065705;28;19927;-70
2023/03/10 10:34:30;;;;;;;;;;;8.30;99.90;;;;;;5065468;28;20014;-70
2023/03/10 10:36:58;;;;;;;;;;;8.30;99.90;;;;;;5064651;28;20112;-70
2023/03/10 10:39:30;;;;;;;;;;;8.30;99.90;;;;;;5063675;28;19927;-70
2023/03/10 10:42:11;;;;;;;;;;;8.40;99.90;;;;;;5077331;28;19943;-70
2023/03/10 10:44:40;;;;;;;;;;;8.50;99.90;;;;;;5085776;28;20151;-70
2023/03/10 10:47:17;;;;;;;;;;;8.50;99.90;;;;;;5073499;28;19996;-70
2023/03/10 10:49:44;;;;;;;;;;;8.50;99.90;;;;;;5081400;28;19921;-70
2023/03/10 10:52:19;;;;;;;;;;;8.60;99.90;;;;;;5072048;28;19959;-70
2023/03/10 10:54:53;;;;;;;;;;;8.70;99.90;;;;;;5085387;28;19942;-70
2023/03/10 10:57:20;;;;;;;;;;;8.80;99.90;;;;;;5084576;28;20235;-69
2023/03/10 10:59:47;;;;;;;;;;;8.90;99.90;;;;;;5066711;28;19921;-70
2023/03/10 11:02:21;;;;;;;;;;;9.00;99.90;;;;;;5065097;28;19921;-70
2023/03/10 11:04:48;;;;;;;;;;;9.20;99.90;;;;;;5070162;28;19983;-70
2023/03/10 11:07:18;;;;;;;;;;;9.30;99.90;;;;;;5084380;28;19920;-72
2023/03/10 11:09:45;;;;;;;;;;;9.30;99.90;;;;;;5084860;28;19920;-70
2023/03/10 11:12:19;;;;;;;;;;;9.50;99.90;;;;;;5083623;28;19927;-74
2023/03/10 11:15:00;;;;;;;;;;;9.50;99.90;;;;;;5084194;28;19928;-71
2023/03/10 11:17:29;;;;;;;;;;;9.60;99.90;;;;;;5082931;28;20200;-69
2023/03/10 11:20:00;;;;;;;;;;;9.60;99.90;;;;;;5083915;28;19943;-70
2023/03/10 11:22:32;;;;;;;;;;;9.60;99.90;;;;;;5084662;28;19920;-69
2023/03/10 11:25:01;;;;;;;;;;;9.60;99.90;;;;;;5084678;28;19979;-69
2023/03/10 11:27:35;;;;;;;;;;;9.70;99.90;;;;;;5084002;28;20188;-69
2023/03/10 11:30:05;;;;;;;;;;;9.70;99.90;;;;;;5073580;28;19988;-69
2023/03/10 11:32:37;;;;;;;;;;;9.70;99.90;;;;;;5064272;28;20145;-69
2023/03/10 11:35:14;;;;;;;;;;;9.60;99.90;;;;;;5061816;28;19931;-69
2023/03/10 11:37:44;;;;;;;;;;;9.60;99.90;;;;;;5063804;28;19920;-69
2023/03/10 11:40:18;;;;;;;;;;;9.60;99.90;;;;;;5078576;28;19988;-69
2023/03/10 11:42:49;;;;;;;;;;;9.50;99.90;;;;;;5080929;28;19962;-69
2023/03/10 11:45:21;;;;;;;;;;;9.50;99.90;;;;;;5064027;28;20215;-69
2023/03/10 11:47:52;;;;;;;;;;;9.40;99.90;;;;;;5063709;28;19921;-69
2023/03/10 11:50:26;;;;;;;;;;;9.20;99.90;;;;;;5064315;28;19927;-69
2023/03/10 11:53:00;;;;;;;;;;;9.00;99.90;;;;;;5064396;28;19954;-69
2023/03/10 11:55:27;;;;;;;;;;;9.00;99.90;;;;;;5064089;28;19967;-69
2023/03/10 11:57:57;;;;;;;;;;;8.90;99.90;;;;;;5063975;28;20202;-69
2023/03/10 12:00:27;;;;;;;;;;;8.90;99.90;;;;;;5072689;28;19921;-69
2023/03/10 12:03:06;;;;;;;;;;;8.90;99.90;;;;;;5064107;28;20097;-69
2023/03/10 12:05:37;;;;;;;;;;;9.00;99.90;;;;;;5064176;28;19921;-69
2023/03/10 12:08:04;;;;;;;;;;;9.00;99.90;;;;;;5063851;28;19928;-70
2023/03/10 12:10:33;;;;;;;;;;;9.00;99.90;;;;;;5078245;28;19955;-70
2023/03/10 12:13:03;;;;;;;;;;;9.00;99.90;;;;;;5063500;28;19921;-70
2023/03/10 12:15:35;;;;;;;;;;;9.00;99.90;;;;;;5063288;28;19943;-70
2023/03/10 12:18:02;;;;;;;;;;;9.10;99.90;;;;;;5067125;28;19924;-69
2023/03/10 12:20:30;;;;;;;;;;;9.00;99.90;;;;;;5080243;28;20115;-70
2023/03/10 12:22:57;;;;;;;;;;;9.00;99.90;;;;;;5063820;28;20282;-70
2023/03/10 12:25:44;;;;;;;;;;;8.90;99.90;;;;;;5063811;28;19921;-70
2023/03/10 12:28:18;;;;;;;;;;;8.90;99.90;;;;;;5057826;28;19949;-69
2023/03/10 12:30:45;;;;;;;;;;;8.90;99.90;;;;;;5072525;28;19927;-70
2023/03/10 12:33:27;;;;;;;;;;;8.90;99.90;;;;;;5084680;28;20222;-70
2023/03/10 12:35:55;;;;;;;;;;;9.10;99.90;;;;;;5082631;28;19926;-69
2023/03/10 12:38:29;;;;;;;;;;;9.10;99.90;;;;;;5083350;28;19963;-70
2023/03/10 12:40:55;;;;;;;;;;;9.00;99.90;;;;;;5083581;28;19943;-70
2023/03/10 12:43:41;;;;;;;;;;;8.90;99.90;;;;;;5083672;28;20173;-70
2023/03/10 12:46:11;;;;;;;;;;;9.00;99.90;;;;;;5083025;28;19927;-69
2023/03/10 12:48:40;;;;;;;;;;;9.00;99.90;;;;;;5082511;28;19952;-70
2023/03/10 12:51:10;;;;;;;;;;;9.00;99.90;;;;;;5083487;28;19927;-69
2023/03/10 12:53:43;;;;;;;;;;;9.10;99.90;;;;;;5083412;28;19987;-69
2023/03/10 12:56:19;;;;;;;;;;;9.30;99.90;;;;;;5082477;28;19926;-70
2023/03/10 12:58:47;;;;;;;;;;;9.40;99.90;;;;;;5063230;28;19920;-70
2023/03/10 13:01:17;;;;;;;;;;;9.50;99.90;;;;;;5063007;28;20255;-69
2023/03/10 13:03:45;;;;;;;;;;;9.50;99.90;;;;;;5062985;28;19927;-69
2023/03/10 13:06:20;;;;;;;;;;;9.50;99.90;;;;;;5062967;28;19920;-69
2023/03/10 13:08:48;;;;;;;;;;;9.60;99.90;;;;;;5063397;28;19920;-69
2023/03/10 13:11:32;;;;;;;;;;;9.60;99.90;;;;;;5063191;28;19983;-69
2023/03/10 13:14:01;;;;;;;;;;;9.60;99.90;;;;;;5049586;28;19921;-70
2023/03/10 13:16:29;;;;;;;;;;;9.50;99.90;;;;;;5066438;28;19921;-69
2023/03/10 13:18:55;;;;;;;;;;;9.50;99.90;;;;;;5082671;28;19942;-69
2023/03/10 13:21:23;;;;;;;;;;;9.50;99.90;;;;;;5083262;28;19927;-69
2023/03/10 13:23:50;;;;;;;;;;;9.50;99.90;;;;;;5086538;28;19920;-69
2023/03/10 13:26:17;;;;;;;;;;;9.50;99.90;;;;;;5078599;28;19984;-69
2023/03/10 13:28:50;;;;;;;;;;;9.50;99.90;;;;;;5064157;28;19983;-70
2023/03/10 13:31:18;;;;;;;;;;;9.50;99.90;;;;;;5066862;28;19984;-69
2023/03/10 13:33:48;;;;;;;;;;;9.40;99.90;;;;;;5066543;28;19921;-70
2023/03/10 13:36:38;;;;;;;;;;;9.40;99.90;;;;;;5065641;28;19956;-70
2023/03/10 13:39:14;;;;;;;;;;;9.40;99.90;;;;;;5056110;28;19928;-70
2023/03/10 13:41:43;;;;;;;;;;;9.20;99.90;;;;;;5066898;28;19921;-69
2023/03/10 13:44:15;;;;;;;;;;;9.00;99.90;;;;;;5066699;28;20111;-69
2023/03/10 13:46:46;;;;;;;;;;;9.10;99.90;;;;;;5065801;28;19927;-70
2023/03/10 13:49:16;;;;;;;;;;;9.00;99.90;;;;;;5066653;28;20119;-70
2023/03/10 13:51:51;;;;;;;;;;;9.00;99.90;;;;;;5066169;28;19920;-69
2023/03/10 13:54:20;;;;;;;;;;;9.10;99.90;;;;;;5082069;28;19926;-70
2023/03/10 13:56:47;;;;;;;;;;;9.00;99.90;;;;;;5085775;28;19932;-70
2023/03/10 13:59:14;;;;;;;;;;;9.10;99.90;;;;;;5086040;28;19927;-71
2023/03/10 14:01:44;;;;;;;;;;;9.00;99.90;;;;;;5085827;28;19991;-70
2023/03/10 14:04:15;;;;;;;;;;;9.00;99.90;;;;;;5085741;28;19920;-70
2023/03/10 14:06:43;;;;;;;;;;;9.00;99.90;;;;;;5085538;28;19991;-70
2023/03/10 14:09:14;;;;;;;;;;;9.10;99.90;;;;;;5073075;28;19920;-70
2023/03/10 14:11:41;;;;;;;;;;;9.10;99.90;;;;;;5075803;28;19921;-69
2023/03/10 14:14:10;;;;;;;;;;;9.10;99.90;;;;;;5070656;28;20303;-70
2023/03/10 14:16:44;;;;;;;;;;;9.00;99.90;;;;;;5084535;28;19987;-70
2023/03/10 14:19:10;;;;;;;;;;;9.00;99.90;;;;;;5085186;28;19927;-70
2023/03/10 14:21:38;;;;;;;;;;;9.10;99.90;;;;;;5085441;28;19926;-70
2023/03/10 14:24:10;;;;;;;;;;;9.10;99.90;;;;;;5084425;28;19932;-70
2023/03/10 14:26:38;;;;;;;;;;;9.10;99.90;;;;;;5084326;28;19983;-70
2023/03/10 14:29:14;;;;;;;;;;;9.10;99.90;;;;;;5069133;28;20182;-70
2023/03/10 14:31:40;;;;;;;;;;;9.10;99.90;;;;;;5065225;28;19921;-69
2023/03/10 14:34:10;;;;;;;;;;;9.10;99.90;;;;;;5064724;28;19920;-69
2023/03/10 14:36:36;;;;;;;;;;;9.00;99.90;;;;;;5064994;28;19992;-69
2023/03/10 14:39:03;;;;;;;;;;;9.00;99.90;;;;;;5065386;28;20263;-69